Time;durP1;ratioP1;P1;durP2;ratioP2;P2;SDS_P1;SDS_P2;PMS_P1;PMS_P2;Temp;Humidity;BMP_temperature;BMP_pressure;BME280_temperature;BME280_humidity;BME280_pressure;Samples;Min_cycle;Max_cycle;Signal;HPM_P1;HPM_P2
2021/06/05 00:04:15;;;;;;;;;;;14.40;99.90;;;;;;10573101;28;19923;-71
2021/06/05 00:09:17;;;;;;;;;;;14.10;99.90;;;;;;10546456;28;19968;-71
2021/06/05 00:14:18;;;;;;;;;;;14.20;99.90;;;;;;10569672;28;20431;-71
2021/06/05 00:19:21;;;;;;;;;;;16.30;99.90;;;;;;10553556;28;19990;-70
2021/06/05 00:24:22;;;;;;;;;;;14.00;99.90;;;;;;10555987;28;20023;-71
2021/06/05 00:29:23;;;;;;;;;;;14.10;99.90;;;;;;10553259;28;19931;-70
2021/06/05 00:34:26;;;;;;;;;;;14.10;99.90;;;;;;10569770;28;19924;-70
2021/06/05 00:39:27;;;;;;;;;;;14.10;99.90;;;;;;10563536;28;19928;-70
2021/06/05 00:44:28;;;;;;;;;;;14.10;99.90;;;;;;10558317;28;19924;-71
2021/06/05 00:49:31;;;;;;;;;;;14.10;99.90;;;;;;10562062;28;20010;-71
2021/06/05 00:54:32;;;;;;;;;;;14.10;99.90;;;;;;10567903;28;19927;-70
2021/06/05 00:59:34;;;;;;;;;;;14.20;99.90;;;;;;10558926;28;19930;-71
2021/06/05 01:04:36;;;;;;;;;;;14.20;99.90;;;;;;10576774;28;19935;-71
2021/06/05 01:09:45;;;;;;;;;;;14.20;99.90;;;;;;10564809;28;20014;-71
2021/06/05 01:14:51;;;;;;;;;;;14.20;99.90;;;;;;10561876;28;19924;-71
2021/06/05 01:19:55;;;;;;;;;;;14.20;99.90;;;;;;10555557;28;20352;-71
2021/06/05 01:25:07;;;;;;;;;;;14.20;99.90;;;;;;10559861;27;20000;-70
2021/06/05 01:30:13;;;;;;;;;;;14.20;99.90;;;;;;10561044;28;19934;-71
2021/06/05 01:35:15;;;;;;;;;;;14.20;99.90;;;;;;10574214;28;19984;-70
2021/06/05 01:40:17;;;;;;;;;;;14.20;99.90;;;;;;10567707;28;19966;-71
2021/06/05 01:45:22;;;;;;;;;;;14.20;99.90;;;;;;10563868;28;19992;-71
2021/06/05 01:50:25;;;;;;;;;;;14.20;99.90;;;;;;10569491;28;20002;-70
2021/06/05 01:55:29;;;;;;;;;;;16.40;99.90;;;;;;10573824;28;19924;-70
2021/06/05 02:00:34;;;;;;;;;;;14.10;99.90;;;;;;10578108;28;19928;-70
2021/06/05 02:05:35;;;;;;;;;;;14.10;99.90;;;;;;10567101;28;20020;-70
2021/06/05 02:10:37;;;;;;;;;;;14.10;99.90;;;;;;10566848;28;20002;-70
2021/06/05 02:15:41;;;;;;;;;;;14.50;99.90;;;;;;10575069;27;19924;-70
2021/06/05 02:20:47;;;;;;;;;;;14.10;99.90;;;;;;10573042;28;20014;-70
2021/06/05 02:25:48;;;;;;;;;;;14.10;99.90;;;;;;10575196;28;19923;-71
2021/06/05 02:30:50;;;;;;;;;;;14.10;99.90;;;;;;10567111;28;19943;-70
2021/06/05 02:35:54;;;;;;;;;;;12.00;99.90;;;;;;10576683;28;20022;-69
2021/06/05 02:40:55;;;;;;;;;;;14.20;99.90;;;;;;10576770;28;19928;-69
2021/06/05 02:46:01;;;;;;;;;;;14.20;99.90;;;;;;10571492;28;19976;-71
2021/06/05 02:51:02;;;;;;;;;;;14.30;99.90;;;;;;10570907;28;19924;-71
2021/06/05 02:56:04;;;;;;;;;;;14.20;99.90;;;;;;10568040;28;19930;-73
2021/06/05 03:01:07;;;;;;;;;;;14.20;99.90;;;;;;10559039;28;19927;-74
2021/06/05 03:06:09;;;;;;;;;;;14.20;99.90;;;;;;10584900;28;20007;-75
2021/06/05 03:11:11;;;;;;;;;;;14.10;99.90;;;;;;10577673;28;19928;-74
2021/06/05 03:16:14;;;;;;;;;;;14.20;99.90;;;;;;10589265;27;20348;-74
2021/06/05 03:21:17;;;;;;;;;;;14.20;99.90;;;;;;10569772;28;19927;-73
2021/06/05 03:26:18;;;;;;;;;;;14.10;99.90;;;;;;10561899;28;19923;-73
2021/06/05 03:31:21;;;;;;;;;;;14.10;99.90;;;;;;10573277;28;19958;-73
2021/06/05 03:36:23;;;;;;;;;;;14.00;99.90;;;;;;10574244;28;19924;-73
2021/06/05 03:41:24;;;;;;;;;;;12.00;99.90;;;;;;10568580;28;19923;-72
2021/06/05 03:46:27;;;;;;;;;;;14.00;99.90;;;;;;10569071;28;19927;-72
2021/06/05 03:51:28;;;;;;;;;;;13.90;99.90;;;;;;10582711;27;20018;-72
2021/06/05 03:56:29;;;;;;;;;;;13.90;99.90;;;;;;10577607;28;20011;-72
2021/06/05 04:01:32;;;;;;;;;;;13.90;99.90;;;;;;10570684;28;20022;-72
2021/06/05 04:06:33;;;;;;;;;;;13.80;99.90;;;;;;10572545;28;20016;-72
2021/06/05 04:11:34;;;;;;;;;;;13.80;99.90;;;;;;10568756;28;20023;-71
2021/06/05 04:16:37;;;;;;;;;;;13.80;99.90;;;;;;10562965;28;20411;-72
2021/06/05 04:21:38;;;;;;;;;;;13.70;99.90;;;;;;10556667;28;20423;-72
2021/06/05 04:26:39;;;;;;;;;;;13.60;99.90;;;;;;10550459;28;20046;-72
2021/06/05 04:31:42;;;;;;;;;;;11.10;99.90;;;;;;10566020;28;19955;-71
2021/06/05 04:36:43;;;;;;;;;;;13.50;99.90;;;;;;10564635;28;19978;-72
2021/06/05 04:41:44;;;;;;;;;;;13.50;99.90;;;;;;10570637;28;20014;-72
2021/06/05 04:46:46;;;;;;;;;;;13.50;99.90;;;;;;10552556;28;19927;-72
2021/06/05 04:51:48;;;;;;;;;;;13.60;99.90;;;;;;10559696;27;19932;-72
2021/06/05 04:56:50;;;;;;;;;;;13.60;99.90;;;;;;10561464;28;19963;-72
2021/06/05 05:01:52;;;;;;;;;;;13.60;99.90;;;;;;10564264;28;19934;-72
2021/06/05 05:06:53;;;;;;;;;;;13.60;99.90;;;;;;10565425;28;19982;-71
2021/06/05 05:11:54;;;;;;;;;;;13.60;99.90;;;;;;10565151;28;19970;-71
2021/06/05 05:16:57;;;;;;;;;;;13.60;99.90;;;;;;10574150;28;19924;-72
2021/06/05 05:21:58;;;;;;;;;;;13.60;99.90;;;;;;10568039;28;19970;-71
2021/06/05 05:26:59;;;;;;;;;;;13.70;99.90;;;;;;10561572;28;20697;-72
2021/06/05 05:32:02;;;;;;;;;;;13.70;99.90;;;;;;10564636;28;20010;-71
2021/06/05 05:37:04;;;;;;;;;;;13.70;99.90;;;;;;10559264;28;20377;-71
2021/06/05 05:42:05;;;;;;;;;;;12.80;99.90;;;;;;10558712;28;19974;-72
2021/06/05 05:47:08;;;;;;;;;;;13.80;99.90;;;;;;10562220;28;19970;-71
2021/06/05 05:52:10;;;;;;;;;;;13.80;99.90;;;;;;10560036;28;20028;-71
2021/06/05 05:57:11;;;;;;;;;;;13.90;99.90;;;;;;10561316;28;20272;-72
2021/06/05 06:02:13;;;;;;;;;;;13.90;99.90;;;;;;10544414;28;19967;-71
2021/06/05 06:07:14;;;;;;;;;;;13.40;99.90;;;;;;10560198;28;19962;-71
2021/06/05 06:12:15;;;;;;;;;;;14.00;99.90;;;;;;10558812;28;20031;-70
2021/06/05 06:17:18;;;;;;;;;;;14.10;99.90;;;;;;10554742;28;20005;-71
2021/06/05 06:22:19;;;;;;;;;;;14.10;99.90;;;;;;10557523;28;19932;-71
2021/06/05 06:27:20;;;;;;;;;;;14.20;99.90;;;;;;10547439;28;19924;-71
2021/06/05 06:32:23;;;;;;;;;;;14.30;99.90;;;;;;10557929;28;19955;-72
2021/06/05 06:37:24;;;;;;;;;;;13.90;99.90;;;;;;10554936;28;20027;-71
2021/06/05 06:42:25;;;;;;;;;;;16.90;99.90;;;;;;10561481;28;19928;-71
2021/06/05 06:47:28;;;;;;;;;;;15.00;99.90;;;;;;10568005;28;20052;-71
2021/06/05 06:52:29;;;;;;;;;;;14.50;99.90;;;;;;10562814;28;19959;-71
2021/06/05 06:57:30;;;;;;;;;;;14.60;99.90;;;;;;10547320;28;20022;-71
2021/06/05 07:02:33;;;;;;;;;;;14.70;99.90;;;;;;10558415;28;19924;-71
2021/06/05 07:07:34;;;;;;;;;;;14.20;99.90;;;;;;10569414;28;20018;-71
2021/06/05 07:12:35;;;;;;;;;;;14.90;99.90;;;;;;10555111;28;20473;-71
2021/06/05 07:17:38;;;;;;;;;;;14.30;99.90;;;;;;10553565;28;20312;-71
2021/06/05 07:22:39;;;;;;;;;;;14.90;99.90;;;;;;10568932;28;19927;-72
2021/06/05 07:27:40;;;;;;;;;;;14.90;99.90;;;;;;10567276;28;19927;-71
2021/06/05 07:32:42;;;;;;;;;;;14.90;99.90;;;;;;10556728;28;19924;-70
2021/06/05 07:37:44;;;;;;;;;;;14.90;99.90;;;;;;10559413;28;19988;-71
2021/06/05 07:42:45;;;;;;;;;;;14.60;99.90;;;;;;10557719;28;20597;-71
2021/06/05 07:47:47;;;;;;;;;;;15.80;99.90;;;;;;10545776;28;20061;-70
2021/06/05 07:52:48;;;;;;;;;;;15.00;99.90;;;;;;10585494;27;19973;-70
2021/06/05 07:57:50;;;;;;;;;;;14.90;99.90;;;;;;10580601;28;19934;-70
2021/06/05 08:02:53;;;;;;;;;;;14.90;99.90;;;;;;10580557;28;20019;-69
2021/06/05 08:07:55;;;;;;;;;;;15.00;99.90;;;;;;10567254;28;20027;-69
2021/06/05 08:12:56;;;;;;;;;;;15.00;99.90;;;;;;10566945;27;19923;-70
2021/06/05 08:17:59;;;;;;;;;;;15.00;99.90;;;;;;10570474;28;19946;-69
2021/06/05 08:23:00;;;;;;;;;;;15.00;99.90;;;;;;10569789;28;20038;-69
2021/06/05 08:28:02;;;;;;;;;;;14.90;99.90;;;;;;10565963;28;20333;-70
2021/06/05 08:33:05;;;;;;;;;;;15.00;99.90;;;;;;10561056;28;19963;-69
2021/06/05 08:38:08;;;;;;;;;;;14.30;99.90;;;;;;10566571;28;19967;-69
2021/06/05 08:43:09;;;;;;;;;;;15.80;99.90;;;;;;10566916;28;19967;-70
2021/06/05 08:48:14;;;;;;;;;;;16.10;99.90;;;;;;10562451;28;20274;-69
2021/06/05 08:53:17;;;;;;;;;;;13.80;99.90;;;;;;10557461;27;20010;-69
2021/06/05 08:58:28;;;;;;;;;;;16.30;99.90;;;;;;10550130;28;20018;-69
2021/06/05 09:03:31;;;;;;;;;;;16.10;99.90;;;;;;10558412;28;20281;-70
2021/06/05 09:08:32;;;;;;;;;;;16.50;99.90;;;;;;10545254;28;19923;-69
2021/06/05 09:13:33;;;;;;;;;;;15.90;99.90;;;;;;10559756;28;19938;-70
2021/06/05 09:18:46;;;;;;;;;;;15.70;99.90;;;;;;10553149;28;20022;-68
2021/06/05 09:23:47;;;;;;;;;;;15.00;99.90;;;;;;10566035;28;20638;-72
2021/06/05 09:28:48;;;;;;;;;;;15.40;99.90;;;;;;10559555;28;20007;-68
2021/06/05 09:33:51;;;;;;;;;;;15.40;99.90;;;;;;10559970;28;20416;-70
2021/06/05 09:38:53;;;;;;;;;;;15.40;99.90;;;;;;10555327;28;19967;-70
2021/06/05 09:44:09;;;;;;;;;;;15.40;99.90;;;;;;10547721;28;21256;-71
2021/06/05 09:49:15;;;;;;;;;;;15.50;99.90;;;;;;10545572;28;19966;-67
2021/06/05 09:54:29;;;;;;;;;;;15.60;99.90;;;;;;10557081;28;20018;-68
2021/06/05 09:59:33;;;;;;;;;;;15.70;99.90;;;;;;10564002;28;19956;-68
2021/06/05 10:04:37;;;;;;;;;;;16.50;99.90;;;;;;10565976;28;19928;-69
2021/06/05 10:09:41;;;;;;;;;;;15.90;99.90;;;;;;10549252;28;19930;-69
2021/06/05 10:14:48;;;;;;;;;;;16.00;99.90;;;;;;10538128;28;22824;-69
2021/06/05 10:19:52;;;;;;;;;;;16.00;99.90;;;;;;10539020;28;20408;-67
2021/06/05 10:24:55;;;;;;;;;;;16.30;99.90;;;;;;10543882;28;20497;-70
2021/06/05 10:29:58;;;;;;;;;;;16.30;99.90;;;;;;10551882;28;20608;-72
2021/06/05 10:35:03;;;;;;;;;;;16.40;99.90;;;;;;10549210;28;20406;-69
2021/06/05 10:40:05;;;;;;;;;;;15.10;99.90;;;;;;10542249;28;19924;-69
2021/06/05 10:45:10;;;;;;;;;;;17.60;99.90;;;;;;10560209;28;19930;-69
2021/06/05 10:50:15;;;;;;;;;;;17.90;99.90;;;;;;10556897;28;19971;-69
2021/06/05 10:55:19;;;;;;;;;;;18.50;99.90;;;;;;10557423;28;19931;-70
2021/06/05 11:00:26;;;;;;;;;;;18.10;99.90;;;;;;10553749;28;20043;-69
2021/06/05 11:05:51;;;;;;;;;;;18.90;99.90;;;;;;10558879;28;19924;-70
2021/06/05 11:10:55;;;;;;;;;;;19.50;99.90;;;;;;10522864;28;19931;-69
2021/06/05 11:15:58;;;;;;;;;;;19.80;99.80;;;;;;10556898;28;20331;-68
2021/06/05 11:21:19;;;;;;;;;;;19.80;98.50;;;;;;10565491;28;20407;-70
2021/06/05 11:26:37;;;;;;;;;;;19.70;98.50;;;;;;10577013;28;19924;-68
2021/06/05 11:31:40;;;;;;;;;;;18.70;97.30;;;;;;10573195;28;19924;-68
2021/06/05 11:36:44;;;;;;;;;;;19.60;97.80;;;;;;10575341;28;20428;-68
2021/06/05 11:41:49;;;;;;;;;;;19.20;97.90;;;;;;10570612;28;20383;-67
2021/06/05 11:46:51;;;;;;;;;;;19.20;98.50;;;;;;10571963;28;19932;-69
2021/06/05 11:51:52;;;;;;;;;;;20.60;98.60;;;;;;10572260;28;20404;-68
2021/06/05 11:56:57;;;;;;;;;;;17.60;98.00;;;;;;10555540;28;20105;-70
2021/06/05 12:02:09;;;;;;;;;;;19.00;98.70;;;;;;10564273;28;19924;-69
2021/06/05 12:07:24;;;;;;;;;;;18.90;98.70;;;;;;10551148;28;20023;-68
2021/06/05 12:12:27;;;;;;;;;;;18.70;98.60;;;;;;10559510;27;19935;-70
2021/06/05 12:17:30;;;;;;;;;;;18.70;99.00;;;;;;10553235;28;19964;-69
2021/06/05 12:22:32;;;;;;;;;;;18.80;98.80;;;;;;10552449;28;19928;-69
2021/06/05 12:27:36;;;;;;;;;;;18.70;98.90;;;;;;10558862;28;20304;-69
2021/06/05 12:32:37;;;;;;;;;;;18.80;98.30;;;;;;10553631;28;19924;-67
2021/06/05 12:37:39;;;;;;;;;;;18.80;98.30;;;;;;10564071;28;19924;-67
2021/06/05 12:42:41;;;;;;;;;;;18.70;98.30;;;;;;10574396;28;20022;-67
2021/06/05 12:47:44;;;;;;;;;;;16.50;97.30;;;;;;10552609;27;19967;-70
2021/06/05 12:52:48;;;;;;;;;;;18.70;98.00;;;;;;10564917;27;19978;-69
2021/06/05 12:57:52;;;;;;;;;;;18.30;98.90;;;;;;10564701;28;21685;-66
2021/06/05 13:02:54;;;;;;;;;;;18.10;99.40;;;;;;10557761;28;20010;-66
2021/06/05 13:08:16;;;;;;;;;;;17.70;99.90;;;;;;10561014;28;19931;-66
2021/06/05 13:13:19;;;;;;;;;;;18.10;99.90;;;;;;10554661;28;19927;-66
2021/06/05 13:18:24;;;;;;;;;;;18.20;99.50;;;;;;10565978;28;20017;-66
2021/06/05 13:23:28;;;;;;;;;;;18.70;98.60;;;;;;10555993;28;19924;-67
2021/06/05 13:28:31;;;;;;;;;;;18.80;98.10;;;;;;10569189;28;19983;-68
2021/06/05 13:33:38;;;;;;;;;;;19.60;97.90;;;;;;10570140;28;19923;-67
2021/06/05 13:38:54;;;;;;;;;;;19.20;96.60;;;;;;10579559;28;19927;-67
2021/06/05 13:43:56;;;;;;;;;;;19.00;97.00;;;;;;10571115;28;19929;-68
2021/06/05 13:48:57;;;;;;;;;;;19.30;96.80;;;;;;10563552;28;19928;-70
2021/06/05 13:53:59;;;;;;;;;;;19.10;96.40;;;;;;10547000;27;19982;-68
2021/06/05 13:59:01;;;;;;;;;;;19.20;96.80;;;;;;10570848;28;19997;-68
2021/06/05 14:04:04;;;;;;;;;;;19.20;96.80;;;;;;10575702;28;20014;-68
2021/06/05 14:09:05;;;;;;;;;;;19.10;96.70;;;;;;10557418;27;19927;-69
2021/06/05 14:14:09;;;;;;;;;;;19.00;97.10;;;;;;10552793;27;19974;-70
2021/06/05 14:19:10;;;;;;;;;;;17.40;96.70;;;;;;10562852;28;19924;-69
2021/06/05 14:24:11;;;;;;;;;;;18.50;97.50;;;;;;10563221;28;20006;-66
2021/06/05 14:29:14;;;;;;;;;;;18.10;98.40;;;;;;10567678;28;19924;-67
2021/06/05 14:34:15;;;;;;;;;;;15.90;98.30;;;;;;10557533;28;20477;-66
2021/06/05 14:39:16;;;;;;;;;;;18.00;99.20;;;;;;10563122;28;19978;-68
2021/06/05 14:44:19;;;;;;;;;;;17.40;99.20;;;;;;10560860;28;20361;-69
2021/06/05 14:49:21;;;;;;;;;;;17.50;99.90;;;;;;10562295;28;19981;-68
2021/06/05 14:54:22;;;;;;;;;;;17.40;99.90;;;;;;10560119;28;20026;-69
2021/06/05 14:59:25;;;;;;;;;;;17.30;99.90;;;;;;10557398;28;20823;-65
2021/06/05 15:04:26;;;;;;;;;;;17.30;99.90;;;;;;10577938;27;19924;-65
2021/06/05 15:09:27;;;;;;;;;;;17.50;99.90;;;;;;10577606;28;19930;-65
2021/06/05 15:14:30;;;;;;;;;;;17.50;99.90;;;;;;10581532;28;20353;-65
2021/06/05 15:19:31;;;;;;;;;;;17.50;99.90;;;;;;10585013;28;19924;-64
2021/06/05 15:24:32;;;;;;;;;;;17.60;99.90;;;;;;10570956;27;20443;-65
2021/06/05 15:29:35;;;;;;;;;;;17.30;99.90;;;;;;10585854;28;19924;-65
2021/06/05 15:34:36;;;;;;;;;;;17.10;99.90;;;;;;10564635;28;20065;-65
2021/06/05 15:39:37;;;;;;;;;;;17.00;99.90;;;;;;10560008;27;19977;-65
2021/06/05 15:44:40;;;;;;;;;;;16.90;99.90;;;;;;10568899;28;20019;-64
2021/06/05 15:49:41;;;;;;;;;;;16.70;99.90;;;;;;10565229;27;19924;-64
2021/06/05 15:54:43;;;;;;;;;;;16.70;99.90;;;;;;10571874;27;20022;-64
2021/06/05 15:59:45;;;;;;;;;;;16.90;99.90;;;;;;10566518;28;19928;-64
2021/06/05 16:04:46;;;;;;;;;;;15.20;99.70;;;;;;10560891;28;20359;-64
2021/06/05 16:09:47;;;;;;;;;;;17.90;98.30;;;;;;10570862;28;19924;-64
2021/06/05 16:14:50;;;;;;;;;;;17.80;98.10;;;;;;10562119;28;20407;-67
2021/06/05 16:19:51;;;;;;;;;;;17.60;98.10;;;;;;10561414;28;20449;-63
2021/06/05 16:24:52;;;;;;;;;;;17.20;98.80;;;;;;10569269;28;20388;-64
2021/06/05 16:29:55;;;;;;;;;;;17.40;99.40;;;;;;10575243;28;19928;-64
2021/06/05 16:34:57;;;;;;;;;;;17.20;99.20;;;;;;10565773;28;20002;-64
2021/06/05 16:39:58;;;;;;;;;;;17.20;99.40;;;;;;10566116;28;19924;-64
2021/06/05 16:45:01;;;;;;;;;;;16.90;99.50;;;;;;10564100;28;20184;-63
2021/06/05 16:50:02;;;;;;;;;;;16.30;99.90;;;;;;10549418;27;19932;-65
2021/06/05 16:55:04;;;;;;;;;;;16.50;99.90;;;;;;10558691;28;19924;-63
2021/06/05 17:00:09;;;;;;;;;;;16.30;99.90;;;;;;10552144;28;20392;-64
2021/06/05 17:05:10;;;;;;;;;;;16.20;99.90;;;;;;10567527;27;20018;-69
2021/06/05 17:10:13;;;;;;;;;;;16.20;99.90;;;;;;10571012;27;19978;-68
2021/06/05 17:15:17;;;;;;;;;;;16.30;99.90;;;;;;10552157;28;19996;-68
2021/06/05 17:20:20;;;;;;;;;;;16.40;99.90;;;;;;10556714;28;19978;-68
2021/06/05 17:25:22;;;;;;;;;;;16.30;99.90;;;;;;10566886;27;19967;-65
2021/06/05 17:30:25;;;;;;;;;;;16.30;99.90;;;;;;10559109;27;19974;-65
2021/06/05 17:35:27;;;;;;;;;;;16.00;99.90;;;;;;10565874;28;19953;-65
2021/06/05 17:40:29;;;;;;;;;;;15.70;99.90;;;;;;10568037;27;19961;-69
2021/06/05 17:45:35;;;;;;;;;;;15.70;99.90;;;;;;10556517;28;19977;-67
2021/06/05 17:50:36;;;;;;;;;;;15.80;99.90;;;;;;10562133;27;19988;-66
2021/06/05 17:55:38;;;;;;;;;;;15.80;99.90;;;;;;10563252;28;20015;-66
2021/06/05 18:00:42;;;;;;;;;;;15.70;99.90;;;;;;10564787;28;20019;-66
2021/06/05 18:05:44;;;;;;;;;;;15.60;99.90;;;;;;10562848;28;20042;-64
2021/06/05 18:10:45;;;;;;;;;;;16.00;99.90;;;;;;10563767;28;19993;-65
2021/06/05 18:15:49;;;;;;;;;;;15.10;99.90;;;;;;10557095;28;19985;-66
2021/06/05 18:20:50;;;;;;;;;;;15.00;99.90;;;;;;10561584;28;19982;-63
2021/06/05 18:25:51;;;;;;;;;;;15.00;99.90;;;;;;10549149;27;19969;-64
2021/06/05 18:30:55;;;;;;;;;;;15.00;99.90;;;;;;10560913;28;19935;-66
2021/06/05 18:35:56;;;;;;;;;;;14.90;99.90;;;;;;10556917;28;19963;-64
2021/06/05 18:40:58;;;;;;;;;;;14.80;99.90;;;;;;10561350;28;19931;-65
2021/06/05 18:46:01;;;;;;;;;;;14.70;99.90;;;;;;10565226;27;19935;-66
2021/06/05 18:51:03;;;;;;;;;;;14.70;99.90;;;;;;10559813;28;19985;-64
2021/06/05 18:56:05;;;;;;;;;;;13.70;99.90;;;;;;10563610;28;20007;-63
2021/06/05 19:01:08;;;;;;;;;;;14.50;99.90;;;;;;10556904;28;20445;-65
2021/06/05 19:06:14;;;;;;;;;;;14.50;99.90;;;;;;10559238;28;20465;-63
2021/06/05 19:11:16;;;;;;;;;;;14.50;99.90;;;;;;10565908;28;19962;-63
2021/06/05 19:16:19;;;;;;;;;;;17.00;99.90;;;;;;10567039;28;19955;-63
2021/06/05 19:21:21;;;;;;;;;;;14.50;99.90;;;;;;10563653;28;20019;-63
2021/06/05 19:26:23;;;;;;;;;;;14.50;99.90;;;;;;10567379;28;20376;-62
2021/06/05 19:31:28;;;;;;;;;;;14.50;99.90;;;;;;10564447;28;20022;-64
2021/06/05 19:36:31;;;;;;;;;;;14.50;99.90;;;;;;10566292;28;20042;-63
2021/06/05 19:41:32;;;;;;;;;;;14.40;99.90;;;;;;10564043;28;19927;-62
2021/06/05 19:46:35;;;;;;;;;;;13.10;99.90;;;;;;10570263;28;19946;-62
2021/06/05 19:51:38;;;;;;;;;;;14.30;99.90;;;;;;10571801;28;19999;-62
2021/06/05 19:56:40;;;;;;;;;;;14.30;99.90;;;;;;10573845;28;19927;-64
2021/06/05 20:01:44;;;;;;;;;;;14.30;99.90;;;;;;10560223;28;19974;-62
2021/06/05 20:06:45;;;;;;;;;;;14.20;99.90;;;;;;10566506;28;19931;-62
2021/06/05 20:11:47;;;;;;;;;;;14.20;99.90;;;;;;10563612;28;20369;-62
2021/06/05 20:16:51;;;;;;;;;;;14.10;99.90;;;;;;10572698;28;20022;-63
2021/06/05 20:21:54;;;;;;;;;;;14.00;99.90;;;;;;10576651;28;20372;-63
2021/06/05 20:26:56;;;;;;;;;;;14.00;99.90;;;;;;10559488;27;20007;-63
2021/06/05 20:31:58;;;;;;;;;;;13.90;99.90;;;;;;10554366;28;20098;-63
2021/06/05 20:36:59;;;;;;;;;;;13.90;99.90;;;;;;10578754;27;20015;-62
2021/06/05 20:42:01;;;;;;;;;;;14.00;99.90;;;;;;10568337;28;19928;-63
2021/06/05 20:47:03;;;;;;;;;;;13.90;99.90;;;;;;10578650;27;20007;-63
2021/06/05 20:52:04;;;;;;;;;;;13.90;99.90;;;;;;10571864;28;19931;-63
2021/06/05 20:57:07;;;;;;;;;;;13.90;99.90;;;;;;10580961;28;19946;-62
2021/06/05 21:02:10;;;;;;;;;;;13.90;99.90;;;;;;10582321;28;20336;-62
2021/06/05 21:07:11;;;;;;;;;;;14.00;99.90;;;;;;10575966;27;19928;-62
2021/06/05 21:12:12;;;;;;;;;;;13.90;99.90;;;;;;10588386;27;19978;-62
2021/06/05 21:17:15;;;;;;;;;;;13.80;99.90;;;;;;10581656;28;19924;-62
2021/06/05 21:22:16;;;;;;;;;;;13.50;99.90;;;;;;10576637;28;19931;-64
2021/06/05 21:27:17;;;;;;;;;;;13.30;99.90;;;;;;10576336;28;20001;-64
2021/06/05 21:32:20;;;;;;;;;;;13.10;99.90;;;;;;10567396;28;20011;-63
2021/06/05 21:37:21;;;;;;;;;;;13.00;99.90;;;;;;10572683;28;19928;-63
2021/06/05 21:42:22;;;;;;;;;;;12.90;99.90;;;;;;10572413;28;19932;-64
2021/06/05 21:47:24;;;;;;;;;;;12.30;99.90;;;;;;10558337;28;20026;-64
2021/06/05 21:52:30;;;;;;;;;;;12.70;99.90;;;;;;10566365;28;20265;-64
2021/06/05 21:57:32;;;;;;;;;;;12.60;99.90;;;;;;10571592;28;19928;-63
2021/06/05 22:02:35;;;;;;;;;;;12.50;99.90;;;;;;10572111;28;19934;-64
2021/06/05 22:07:36;;;;;;;;;;;12.50;99.90;;;;;;10577731;28;20249;-63
2021/06/05 22:12:37;;;;;;;;;;;12.40;99.90;;;;;;10577823;27;20010;-64
2021/06/05 22:17:40;;;;;;;;;;;12.40;99.90;;;;;;10568799;28;19924;-63
2021/06/05 22:22:41;;;;;;;;;;;12.40;99.90;;;;;;10576324;28;19935;-63
2021/06/05 22:27:44;;;;;;;;;;;12.20;99.90;;;;;;10568769;28;19963;-63
2021/06/05 22:32:46;;;;;;;;;;;10.00;99.90;;;;;;10575915;28;19959;-63
2021/06/05 22:37:48;;;;;;;;;;;12.20;99.90;;;;;;10571613;28;19971;-64
2021/06/05 22:42:49;;;;;;;;;;;12.10;99.90;;;;;;10564864;28;20022;-63
2021/06/05 22:47:52;;;;;;;;;;;12.10;99.90;;;;;;10563348;28;20291;-64
2021/06/05 22:52:53;;;;;;;;;;;12.10;99.90;;;;;;10571023;28;19928;-64
2021/06/05 22:57:54;;;;;;;;;;;12.10;99.90;;;;;;10570270;28;20022;-63
2021/06/05 23:02:57;;;;;;;;;;;12.10;99.90;;;;;;10561759;28;20018;-63
2021/06/05 23:07:59;;;;;;;;;;;12.00;99.90;;;;;;10577054;28;20022;-63
2021/06/05 23:13:00;;;;;;;;;;;12.00;99.90;;;;;;10579374;28;20010;-64
2021/06/05 23:18:03;;;;;;;;;;;12.00;99.90;;;;;;10573909;28;20026;-63
2021/06/05 23:23:07;;;;;;;;;;;12.00;99.90;;;;;;10576436;28;19932;-62
2021/06/05 23:28:09;;;;;;;;;;;12.00;99.90;;;;;;10570774;28;20024;-64
2021/06/05 23:33:15;;;;;;;;;;;12.00;99.90;;;;;;10585917;28;20018;-63
2021/06/05 23:38:18;;;;;;;;;;;11.90;99.90;;;;;;10585231;28;19985;-62
2021/06/05 23:43:19;;;;;;;;;;;11.90;99.90;;;;;;10584835;27;19927;-63
2021/06/05 23:48:22;;;;;;;;;;;11.90;99.90;;;;;;10582830;27;19927;-63
2021/06/05 23:53:24;;;;;;;;;;;11.90;99.90;;;;;;10569357;28;20000;-63
2021/06/05 23:58:27;;;;;;;;;;;11.80;99.90;;;;;;10583282;28;20019;-64
